createdAt,value
2022-08-21T00:02:02.568Z,77.54
2022-08-21T00:05:06.296Z,77.78
2022-08-21T00:08:09.477Z,77.86
2022-08-21T00:11:12.786Z,77.88
2022-08-21T00:14:16.255Z,77.86
2022-08-21T00:17:19.377Z,78.20
2022-08-21T00:20:23.505Z,78.11
2022-08-21T00:23:27.728Z,78.34
2022-08-21T00:26:30.784Z,78.17
2022-08-21T00:29:34.186Z,78.15
2022-08-21T00:32:40.044Z,78.19
2022-08-21T00:35:44.787Z,78.36
2022-08-21T00:38:47.697Z,78.46
2022-08-21T00:41:52.642Z,78.39
2022-08-21T00:44:55.618Z,78.28
2022-08-21T00:47:58.999Z,78.44
2022-08-21T00:51:24.296Z,78.51
2022-08-21T00:54:30.990Z,78.52
2022-08-21T00:57:41.532Z,78.54
2022-08-21T01:00:49.262Z,78.48
2022-08-21T01:03:52.448Z,78.65
2022-08-21T01:06:56.143Z,78.66
2022-08-21T01:09:59.510Z,78.66
2022-08-21T01:13:03.330Z,78.60
2022-08-21T01:16:10.355Z,78.58
2022-08-21T01:19:15.326Z,78.69
2022-08-21T01:22:18.225Z,78.65
2022-08-21T01:25:21.950Z,78.76
2022-08-21T01:28:25.485Z,78.68
2022-08-21T01:31:30.427Z,78.91
2022-08-21T01:34:37.524Z,78.92
2022-08-21T01:37:41.172Z,79.06
2022-08-21T01:40:44.018Z,79.20
2022-08-21T01:43:47.444Z,79.06
2022-08-21T01:46:50.678Z,79.15
2022-08-21T01:49:54.003Z,79.12
2022-08-21T01:52:57.257Z,79.38
2022-08-21T01:56:00.698Z,80.22
2022-08-21T01:59:03.909Z,80.46
2022-08-21T02:02:07.280Z,80.14
2022-08-21T02:05:13.292Z,80.63
2022-08-21T02:08:16.275Z,81.03
2022-08-21T02:11:20.105Z,80.80
2022-08-21T02:14:32.296Z,80.70
2022-08-21T02:17:51.385Z,80.93
2022-08-21T02:20:56.372Z,81.74
2022-08-21T02:24:02.786Z,81.81
2022-08-21T02:27:05.898Z,81.64
2022-08-21T02:30:13.049Z,81.38
2022-08-21T02:33:16.618Z,81.43
2022-08-21T02:36:19.736Z,81.25
2022-08-21T02:39:27.030Z,80.90
2022-08-21T02:42:31.471Z,80.99
2022-08-21T02:45:36.642Z,80.68
2022-08-21T02:48:40.755Z,80.94
2022-08-21T02:51:43.673Z,80.90
2022-08-21T02:54:47.000Z,80.79
2022-08-21T02:57:50.148Z,80.77
2022-08-21T03:00:54.134Z,80.82
2022-08-21T03:03:56.975Z,80.52
2022-08-21T03:06:59.891Z,80.25
2022-08-21T03:10:04.899Z,80.04
2022-08-21T03:13:08.664Z,79.99
2022-08-21T03:16:11.557Z,80.02
2022-08-21T03:19:14.639Z,79.90
2022-08-21T03:22:18.641Z,79.73
2022-08-21T03:25:40.473Z,79.44
2022-08-21T03:28:44.214Z,79.14
2022-08-21T03:31:47.265Z,79.27
2022-08-21T03:34:52.143Z,79.15
2022-08-21T03:37:57.367Z,78.88
2022-08-21T03:41:01.231Z,78.75
2022-08-21T03:44:04.754Z,78.64
2022-08-21T03:47:07.991Z,78.59
2022-08-21T03:50:11.097Z,78.67
2022-08-21T03:53:17.516Z,78.46
2022-08-21T03:56:21.203Z,78.31
2022-08-21T03:59:25.408Z,78.30
2022-08-21T04:02:30.129Z,78.41
2022-08-21T04:05:34.284Z,78.32
2022-08-21T04:08:37.534Z,78.24
2022-08-21T04:11:40.575Z,78.18
2022-08-21T04:14:43.425Z,78.38
2022-08-21T04:17:46.477Z,78.31
2022-08-21T04:20:51.686Z,78.22
2022-08-21T04:23:56.214Z,78.28
2022-08-21T04:26:59.185Z,78.09
2022-08-21T04:30:02.402Z,78.13
2022-08-21T04:33:05.418Z,78.22
2022-08-21T04:36:08.816Z,78.09
2022-08-21T04:39:11.767Z,77.91
2022-08-21T04:42:15.622Z,77.77
2022-08-21T04:45:37.502Z,77.88
2022-08-21T04:48:41.939Z,77.96
2022-08-21T04:51:45.421Z,77.89
2022-08-21T04:54:54.398Z,77.65
2022-08-21T04:58:07.569Z,77.55
2022-08-21T05:01:17.370Z,77.43
2022-08-21T05:04:27.759Z,77.70
2022-08-21T05:07:42.324Z,77.63
2022-08-21T05:10:47.189Z,77.56
2022-08-21T05:13:57.085Z,77.39
2022-08-21T05:17:01.233Z,77.44
2022-08-21T05:20:04.984Z,77.36
2022-08-21T05:23:12.071Z,77.28
2022-08-21T05:26:19.716Z,77.30
2022-08-21T05:29:23.712Z,77.14
2022-08-21T05:32:28.941Z,77.29
2022-08-21T05:35:33.509Z,77.41
2022-08-21T05:38:36.446Z,77.37
2022-08-21T05:41:39.746Z,77.43
2022-08-21T05:44:42.682Z,77.42
2022-08-21T05:47:47.223Z,77.64
2022-08-21T05:50:52.888Z,77.86
2022-08-21T05:53:55.809Z,78.31
2022-08-21T05:56:59.047Z,78.34
2022-08-21T06:00:02.622Z,78.66
2022-08-21T06:03:12.499Z,78.78
2022-08-21T06:06:15.472Z,78.82
2022-08-21T06:09:18.323Z,78.60
2022-08-21T06:12:21.421Z,78.79
2022-08-21T06:15:25.587Z,79.17
2022-08-21T06:18:28.468Z,79.43
2022-08-21T06:21:31.628Z,79.44
2022-08-21T06:24:34.981Z,79.30
2022-08-21T06:27:38.042Z,79.59
2022-08-21T06:30:45.895Z,79.53
2022-08-21T06:33:49.460Z,79.45
2022-08-21T06:36:52.404Z,79.59
2022-08-21T06:40:01.549Z,79.61
2022-08-21T06:43:10.720Z,79.58
2022-08-21T06:46:18.020Z,79.61
2022-08-21T06:49:21.666Z,79.49
2022-08-21T06:52:24.939Z,79.26
2022-08-21T06:55:29.354Z,79.46
2022-08-21T06:58:32.347Z,79.46
2022-08-21T07:01:35.744Z,79.53
2022-08-21T07:04:39.065Z,79.47
2022-08-21T07:08:36.590Z,79.62
2022-08-21T07:11:47.515Z,79.80
2022-08-21T07:14:51.111Z,79.72
2022-08-21T07:17:54.402Z,79.65
2022-08-21T07:21:06.372Z,79.62
2022-08-21T07:24:10.032Z,79.44
2022-08-21T07:27:14.245Z,79.43
2022-08-21T07:30:19.253Z,79.41
2022-08-21T07:33:24.604Z,79.51
2022-08-21T07:36:27.476Z,79.57
2022-08-21T07:39:30.313Z,79.63
2022-08-21T07:42:33.543Z,79.59
2022-08-21T07:45:36.528Z,79.52
2022-08-21T07:48:40.433Z,79.39
2022-08-21T07:51:43.455Z,79.29
2022-08-21T07:54:46.469Z,79.43
2022-08-21T07:57:50.258Z,79.39
2022-08-21T08:00:53.475Z,79.41
2022-08-21T08:03:57.535Z,79.31
2022-08-21T08:07:00.612Z,79.36
2022-08-21T08:10:05.123Z,79.49
2022-08-21T08:13:10.537Z,79.55
2022-08-21T08:16:15.049Z,79.44
2022-08-21T08:19:18.023Z,79.41
2022-08-21T08:22:26.883Z,79.30
2022-08-21T08:25:36.191Z,79.49
2022-08-21T08:28:40.144Z,79.77
2022-08-21T08:31:44.590Z,79.64
2022-08-21T08:34:50.083Z,79.60
2022-08-21T08:37:53.467Z,79.43
2022-08-21T08:41:14.341Z,79.29
2022-08-21T08:44:17.521Z,79.31
2022-08-21T08:47:20.878Z,79.34
2022-08-21T08:50:44.542Z,79.17
2022-08-21T08:54:10.442Z,78.99
2022-08-21T08:57:24.155Z,79.32
2022-08-21T09:00:27.230Z,79.29
2022-08-21T09:03:31.678Z,79.16
2022-08-21T09:06:43.614Z,79.30
2022-08-21T09:09:52.932Z,78.96
2022-08-21T09:13:11.149Z,79.31
2022-08-21T09:16:50.278Z,79.65
2022-08-21T09:20:09.490Z,79.61
2022-08-21T09:23:18.706Z,79.21
2022-08-21T09:26:26.483Z,79.16
2022-08-21T09:29:32.801Z,78.99
2022-08-21T09:32:38.339Z,79.09
2022-08-21T09:35:56.788Z,78.81
2022-08-21T09:38:59.762Z,78.87
2022-08-21T09:42:06.571Z,78.76
2022-08-21T09:45:18.805Z,78.93
2022-08-21T09:48:26.190Z,78.88
2022-08-21T09:51:33.046Z,78.81
2022-08-21T09:54:41.295Z,78.66
2022-08-21T09:57:50.435Z,78.48
2022-08-21T10:00:59.717Z,78.40
2022-08-21T10:04:11.229Z,78.46
2022-08-21T10:07:15.941Z,78.35
2022-08-21T10:10:27.204Z,78.24
2022-08-21T10:13:47.977Z,78.18
2022-08-21T10:17:08.862Z,77.74
2022-08-21T10:20:28.000Z,78.01
2022-08-21T10:23:50.517Z,78.05
2022-08-21T10:27:15.189Z,77.81
2022-08-21T10:30:36.781Z,77.73
2022-08-21T10:34:05.987Z,77.70
2022-08-21T10:37:13.128Z,77.86
2022-08-21T10:40:19.547Z,77.84
2022-08-21T10:43:40.759Z,77.85
2022-08-21T10:47:17.260Z,77.84
2022-08-21T10:50:47.199Z,77.69
2022-08-21T10:54:23.480Z,77.72
2022-08-21T10:57:48.123Z,77.66
2022-08-21T11:00:58.096Z,77.58
2022-08-21T11:04:20.812Z,77.49
2022-08-21T11:07:31.761Z,77.53
2022-08-21T11:10:59.391Z,77.92
2022-08-21T11:14:21.692Z,77.85
2022-08-21T11:17:35.192Z,77.71
2022-08-21T11:20:44.445Z,77.57
2022-08-21T11:23:56.140Z,77.63
2022-08-21T11:27:02.697Z,77.61
2022-08-21T11:30:08.370Z,77.68
2022-08-21T11:33:42.959Z,77.73
2022-08-21T11:36:56.533Z,77.73
2022-08-21T11:40:16.802Z,77.72
2022-08-21T11:43:26.550Z,77.92
2022-08-21T11:46:30.631Z,77.69
2022-08-21T11:50:18.128Z,77.52
2022-08-21T11:53:39.408Z,77.62
2022-08-21T11:56:52.659Z,77.42
2022-08-21T12:00:09.759Z,77.40
2022-08-21T12:03:17.388Z,77.44
2022-08-21T12:06:33.504Z,77.10
2022-08-21T12:09:40.219Z,76.80
2022-08-21T12:12:45.922Z,76.98
2022-08-21T12:15:49.199Z,76.81
2022-08-21T12:19:29.465Z,76.57
2022-08-21T12:22:42.100Z,76.15
2022-08-21T12:26:19.371Z,76.23
2022-08-21T12:29:38.645Z,76.29
2022-08-21T12:32:55.214Z,76.51
2022-08-21T12:36:22.459Z,76.29
2022-08-21T12:39:29.076Z,76.01
2022-08-21T12:42:58.056Z,75.64
2022-08-21T12:46:05.451Z,75.59
2022-08-21T12:49:18.141Z,75.35
2022-08-21T12:52:30.153Z,75.00
2022-08-21T12:55:35.452Z,75.24
2022-08-21T12:58:42.432Z,75.47
2022-08-21T13:01:50.610Z,75.50
2022-08-21T13:04:56.398Z,75.38
2022-08-21T13:08:04.213Z,75.60
2022-08-21T13:11:13.641Z,75.80
2022-08-21T13:14:40.815Z,75.71
2022-08-21T13:17:51.696Z,75.75
2022-08-21T13:21:09.543Z,75.83
2022-08-21T13:24:43.998Z,75.81
2022-08-21T13:28:10.196Z,75.80
2022-08-21T13:31:14.664Z,75.84
2022-08-21T13:34:19.176Z,75.92
2022-08-21T13:37:24.569Z,76.21
2022-08-21T13:40:40.992Z,76.05
2022-08-21T13:43:57.095Z,75.71
2022-08-21T13:47:06.256Z,75.56
2022-08-21T13:50:13.201Z,75.56
2022-08-21T13:53:30.536Z,75.55
2022-08-21T13:56:43.084Z,75.53
2022-08-21T13:59:46.057Z,75.24
2022-08-21T14:02:54.387Z,74.97
2022-08-21T14:06:00.429Z,74.94
2022-08-21T14:09:12.870Z,74.73
2022-08-21T14:12:23.430Z,74.07
2022-08-21T14:15:31.313Z,73.92
2022-08-21T14:18:48.610Z,73.80
2022-08-21T14:21:52.154Z,73.64
2022-08-21T14:25:21.574Z,73.49
2022-08-21T14:28:42.840Z,72.22
2022-08-21T14:31:52.688Z,72.37
2022-08-21T14:34:58.004Z,72.45
2022-08-21T14:38:02.759Z,72.24
2022-08-21T14:41:24.827Z,71.59
2022-08-21T14:44:27.901Z,71.61
2022-08-21T14:47:31.085Z,71.04
2022-08-21T14:50:34.774Z,70.23
2022-08-21T14:53:45.726Z,69.36
2022-08-21T14:56:49.213Z,69.78
2022-08-21T14:59:52.183Z,66.20
2022-08-21T15:07:36.062Z,66.08
2022-08-21T15:10:56.994Z,67.07
2022-08-21T15:14:04.746Z,66.21
2022-08-21T15:17:10.784Z,65.13
2022-08-21T15:20:14.148Z,65.86
2022-08-21T15:23:18.155Z,65.95
2022-08-21T15:26:23.469Z,65.51
2022-08-21T15:29:32.635Z,65.61
2022-08-21T15:33:04.613Z,65.07
2022-08-21T15:36:08.583Z,63.24
2022-08-21T15:39:11.572Z,62.25
2022-08-21T15:42:15.872Z,63.40
2022-08-21T15:46:21.988Z,63.09
2022-08-21T15:50:15.571Z,61.98
2022-08-21T15:54:11.068Z,62.28
2022-08-21T16:03:07.612Z,61.06
2022-08-21T16:06:10.599Z,59.68
2022-08-21T16:09:19.266Z,60.69
2022-08-21T16:12:25.735Z,60.79
2022-08-21T16:15:29.429Z,58.19
2022-08-21T16:18:32.786Z,57.65
2022-08-21T16:21:36.436Z,58.74
2022-08-21T16:24:39.423Z,59.70
2022-08-21T16:27:50.824Z,59.34
2022-08-21T16:30:53.849Z,59.34
2022-08-21T16:34:00.069Z,59.19
2022-08-21T16:37:03.427Z,57.92
2022-08-21T16:40:09.194Z,57.39
2022-08-21T16:43:12.530Z,58.35
2022-08-21T16:46:41.594Z,58.09
2022-08-21T16:49:47.313Z,58.75
2022-08-21T16:52:51.249Z,58.75
2022-08-21T16:56:07.288Z,58.78
2022-08-21T16:59:11.829Z,58.40
2022-08-21T17:02:35.846Z,59.25
2022-08-21T17:05:38.818Z,58.93
2022-08-21T17:08:42.053Z,59.24
2022-08-21T17:11:49.883Z,58.89
2022-08-21T17:14:52.853Z,59.54
2022-08-21T17:17:56.907Z,59.42
2022-08-21T17:20:59.924Z,59.83
2022-08-21T17:24:03.181Z,60.09
2022-08-21T17:27:08.223Z,60.36
2022-08-21T17:30:13.034Z,60.55
2022-08-21T17:33:19.106Z,60.94
2022-08-21T17:36:27.889Z,60.61
2022-08-21T17:39:30.964Z,60.85
2022-08-21T17:42:34.594Z,60.87
2022-08-21T17:45:37.825Z,60.82
2022-08-21T17:48:41.015Z,60.93
2022-08-21T17:51:50.938Z,60.85
2022-08-21T17:54:55.545Z,60.97
2022-08-21T17:57:58.900Z,61.07
2022-08-21T18:01:06.076Z,61.19
2022-08-21T18:04:10.918Z,61.22
2022-08-21T18:07:30.749Z,61.30
2022-08-21T18:10:36.096Z,61.66
2022-08-21T18:13:40.599Z,62.11
2022-08-21T18:16:43.775Z,62.22
2022-08-21T18:20:08.217Z,62.24
2022-08-21T18:23:11.316Z,62.49
2022-08-21T18:26:21.101Z,62.70
2022-08-21T18:29:27.228Z,62.95
2022-08-21T18:32:32.042Z,63.06
2022-08-21T18:35:35.692Z,63.23
2022-08-21T18:38:38.765Z,63.36
2022-08-21T18:41:41.920Z,63.63
2022-08-21T18:45:01.048Z,63.77
2022-08-21T18:48:09.179Z,64.00
2022-08-21T18:51:12.908Z,63.97
2022-08-21T18:54:15.861Z,64.15
2022-08-21T18:57:20.946Z,64.22
2022-08-21T19:00:27.758Z,64.22
2022-08-21T19:03:31.442Z,64.32
2022-08-21T19:06:36.672Z,64.43
2022-08-21T19:09:42.910Z,64.78
2022-08-21T19:12:46.415Z,65.01
2022-08-21T19:15:55.292Z,65.03
2022-08-21T19:19:00.641Z,64.97
2022-08-21T19:22:03.665Z,64.99
2022-08-21T19:25:08.035Z,65.05
2022-08-21T19:28:16.323Z,65.08
2022-08-21T19:31:23.606Z,65.06
2022-08-21T19:34:29.318Z,65.10
2022-08-21T19:37:32.356Z,65.41
2022-08-21T19:40:39.633Z,65.53
2022-08-21T19:43:50.050Z,65.47
2022-08-21T19:46:55.080Z,65.47
2022-08-21T19:50:03.225Z,65.52
2022-08-21T19:53:11.981Z,65.64
2022-08-21T19:56:24.963Z,65.71
2022-08-21T19:59:28.820Z,65.98
2022-08-21T20:02:34.467Z,66.03
2022-08-21T20:05:39.910Z,66.10
2022-08-21T20:08:43.237Z,66.13
2022-08-21T20:11:50.713Z,66.22
2022-08-21T20:14:53.897Z,66.37
2022-08-21T20:17:57.081Z,66.53
2022-08-21T20:21:00.245Z,66.82
2022-08-21T20:24:04.342Z,66.77
2022-08-21T20:27:10.300Z,66.81
2022-08-21T20:30:13.708Z,66.96
2022-08-21T20:33:16.976Z,66.84
2022-08-21T20:36:21.718Z,66.96
2022-08-21T20:39:24.882Z,67.15
2022-08-21T20:42:27.876Z,67.34
2022-08-21T20:45:34.347Z,67.41
2022-08-21T20:48:49.473Z,67.37
2022-08-21T20:51:54.185Z,67.39
2022-08-21T20:55:10.252Z,67.43
2022-08-21T20:58:37.310Z,67.53
2022-08-21T21:01:41.674Z,67.85
2022-08-21T21:04:51.827Z,68.04
2022-08-21T21:08:19.344Z,67.96
2022-08-21T21:15:10.368Z,68.00
2022-08-21T21:18:37.007Z,68.13
2022-08-21T21:21:51.634Z,68.10
2022-08-21T21:25:40.004Z,68.14
2022-08-21T21:29:05.152Z,68.07
2022-08-21T21:35:44.814Z,67.92
2022-08-21T21:39:08.422Z,67.97
2022-08-21T21:42:30.570Z,68.18
2022-08-21T21:46:16.283Z,68.33
2022-08-21T21:50:21.727Z,68.34
2022-08-21T21:53:55.131Z,68.46
2022-08-21T21:57:33.556Z,68.42
2022-08-21T22:00:52.255Z,68.76
2022-08-21T22:04:28.364Z,68.85
2022-08-21T22:07:47.786Z,68.95
2022-08-21T22:11:30.185Z,69.07
2022-08-21T22:14:38.921Z,69.11
2022-08-21T22:17:45.107Z,69.30
2022-08-21T22:21:05.856Z,69.32
2022-08-21T22:24:23.015Z,69.31
2022-08-21T22:27:33.525Z,69.40
2022-08-21T22:30:50.849Z,69.40
2022-08-21T22:34:18.443Z,69.55
2022-08-21T22:37:35.028Z,69.66
2022-08-21T22:40:38.140Z,69.64
2022-08-21T22:44:02.812Z,69.91
2022-08-21T22:47:12.153Z,69.88
2022-08-21T22:50:19.611Z,70.18
2022-08-21T22:53:27.621Z,70.35
2022-08-21T22:56:42.652Z,70.83
2022-08-21T23:00:00.862Z,70.84
2022-08-21T23:03:04.703Z,70.69
2022-08-21T23:06:28.407Z,70.73
2022-08-21T23:09:38.940Z,70.72
2022-08-21T23:12:43.842Z,70.68
2022-08-21T23:16:05.398Z,70.73
2022-08-21T23:19:24.851Z,71.10
2022-08-21T23:22:52.135Z,71.11
2022-08-21T23:26:28.862Z,71.18
2022-08-21T23:30:01.613Z,71.37
2022-08-21T23:33:34.180Z,70.96
2022-08-21T23:37:18.989Z,71.12
2022-08-21T23:40:50.927Z,71.24
2022-08-21T23:44:16.981Z,71.18
2022-08-21T23:47:51.409Z,71.77
2022-08-21T23:50:54.377Z,71.79
2022-08-21T23:54:27.283Z,71.30
2022-08-21T23:57:42.489Z,71.33
